createdAt,value
2022-08-18T00:01:34.564Z,8.47
2022-08-18T00:06:41.770Z,8.63
2022-08-18T00:11:47.381Z,8.83
2022-08-18T00:16:54.873Z,9.37
2022-08-18T00:22:00.828Z,9.47
2022-08-18T00:27:07.582Z,9.10
2022-08-18T00:32:15.226Z,8.23
2022-08-18T00:37:21.196Z,8.87
2022-08-18T00:42:30.662Z,8.00
2022-08-18T00:47:42.507Z,9.07
2022-08-18T00:52:49.823Z,8.33
2022-08-18T00:57:58.634Z,8.97
2022-08-18T01:03:07.145Z,8.60
2022-08-18T01:08:15.358Z,9.27
2022-08-18T01:13:22.782Z,9.23
2022-08-18T01:18:46.168Z,9.30
2022-08-18T01:23:54.501Z,9.80
2022-08-18T01:29:18.626Z,9.80
2022-08-18T01:34:20.983Z,10.17
2022-08-18T01:41:21.055Z,9.73
2022-08-18T01:44:34.596Z,8.83
2022-08-18T01:49:43.942Z,10.27
2022-08-18T01:54:50.721Z,10.07
2022-08-18T01:59:56.386Z,9.90
2022-08-18T02:05:04.923Z,10.07
2022-08-18T02:10:16.313Z,10.27
2022-08-18T02:15:20.864Z,9.80
2022-08-18T02:20:26.966Z,9.67
2022-08-18T02:25:32.607Z,10.37
2022-08-18T02:30:39.090Z,10.70
2022-08-18T02:35:46.499Z,11.30
2022-08-18T02:41:04.138Z,11.33
2022-08-18T02:46:10.138Z,11.83
2022-08-18T02:51:18.421Z,11.77
2022-08-18T02:56:32.733Z,11.97
2022-08-18T03:01:38.606Z,11.77
2022-08-18T03:06:46.047Z,11.73
2022-08-18T03:11:53.095Z,12.03
2022-08-18T03:17:00.097Z,12.73
2022-08-18T03:22:24.300Z,11.27
2022-08-18T03:27:14.715Z,12.03
2022-08-18T03:32:20.303Z,13.10
2022-08-18T03:37:25.836Z,12.10
2022-08-18T03:42:31.295Z,12.40
2022-08-18T03:47:36.871Z,12.70
2022-08-18T03:52:42.445Z,12.90
2022-08-18T03:57:48.847Z,12.70
2022-08-18T04:02:54.378Z,13.50
2022-08-18T04:08:00.125Z,13.23
2022-08-18T04:13:05.927Z,12.60
2022-08-18T04:18:12.323Z,13.87
2022-08-18T04:23:18.066Z,13.97
2022-08-18T04:28:23.631Z,13.83
2022-08-18T04:33:30.123Z,14.73
2022-08-18T04:38:35.682Z,13.53
2022-08-18T04:43:42.432Z,14.30
2022-08-18T04:48:47.936Z,13.23
2022-08-18T04:53:54.321Z,14.47
2022-08-18T04:59:03.166Z,15.87
2022-08-18T05:04:10.230Z,13.00
2022-08-18T05:09:23.145Z,12.90
2022-08-18T05:14:24.471Z,13.87
2022-08-18T05:19:31.064Z,13.50
2022-08-18T05:24:39.900Z,14.27
2022-08-18T05:29:46.317Z,13.50
2022-08-18T05:34:52.051Z,13.33
2022-08-18T05:40:11.442Z,13.60
2022-08-18T05:45:18.266Z,14.20
2022-08-18T05:50:24.073Z,12.50
2022-08-18T05:55:56.603Z,14.57
2022-08-18T06:01:05.051Z,13.67
2022-08-18T06:06:14.340Z,15.63
2022-08-18T06:11:22.857Z,13.97
2022-08-18T06:16:41.695Z,14.20
2022-08-18T06:21:54.758Z,15.33
2022-08-18T06:27:12.284Z,15.33
2022-08-18T06:32:39.147Z,15.20
2022-08-18T06:38:08.571Z,15.33
2022-08-18T06:43:17.433Z,15.70
2022-08-18T06:48:28.911Z,14.37
2022-08-18T06:53:55.783Z,15.73
2022-08-18T06:59:19.566Z,15.43
2022-08-18T07:04:40.648Z,14.67
2022-08-18T07:09:46.468Z,15.73
2022-08-18T07:15:01.452Z,15.77
2022-08-18T07:20:13.386Z,14.80
2022-08-18T07:25:24.770Z,17.23
2022-08-18T07:30:33.846Z,15.43
2022-08-18T07:35:49.343Z,13.47
2022-08-18T07:41:03.907Z,14.53
2022-08-18T07:46:12.522Z,16.07
2022-08-18T07:51:40.917Z,15.60
2022-08-18T07:57:07.787Z,16.37
2022-08-18T08:02:54.994Z,15.67
2022-08-18T08:08:01.679Z,16.17
2022-08-18T08:13:53.990Z,16.43
2022-08-18T08:19:01.796Z,16.03
2022-08-18T08:24:19.955Z,16.00
2022-08-18T08:29:32.146Z,15.67
2022-08-18T08:34:40.817Z,16.43
2022-08-18T08:39:57.473Z,16.27
2022-08-18T08:45:11.812Z,14.50
2022-08-18T08:50:23.002Z,15.70
2022-08-18T08:55:31.672Z,15.87
2022-08-18T09:00:40.075Z,16.50
2022-08-18T09:06:00.590Z,16.27
2022-08-18T09:11:27.703Z,14.63
2022-08-18T09:17:09.576Z,16.73
2022-08-18T09:22:39.609Z,16.43
2022-08-18T09:28:09.964Z,15.55
2022-08-18T09:33:19.172Z,15.55
2022-08-18T09:38:46.174Z,15.67
2022-08-18T09:44:21.695Z,15.72
2022-08-18T09:49:30.889Z,14.73
2022-08-18T09:54:41.284Z,15.93
2022-08-18T09:59:51.444Z,14.47
2022-08-18T10:05:20.458Z,13.83
2022-08-18T10:16:11.086Z,14.65
2022-08-18T10:21:31.376Z,14.83
2022-08-18T10:26:41.803Z,15.43
2022-08-18T10:32:01.102Z,15.70
2022-08-18T10:37:35.939Z,14.33
2022-08-18T10:42:47.900Z,14.07
2022-08-18T10:48:30.493Z,14.78
2022-08-18T10:53:51.070Z,14.43
2022-08-18T11:10:27.866Z,14.60
2022-08-18T11:15:22.281Z,13.55
2022-08-18T11:20:25.820Z,13.78
2022-08-18T11:25:38.327Z,13.28
2022-08-18T11:30:46.651Z,12.68
2022-08-18T11:35:57.952Z,12.88
2022-08-18T11:41:22.801Z,13.03
2022-08-18T11:46:33.581Z,13.38
2022-08-18T11:51:43.932Z,13.08
2022-08-18T11:56:49.696Z,12.95
2022-08-18T12:01:59.075Z,12.30
2022-08-18T12:07:10.166Z,12.65
2022-08-18T12:12:22.765Z,12.53
2022-08-18T12:17:31.503Z,12.30
2022-08-18T12:22:39.920Z,12.33
2022-08-18T12:27:46.036Z,11.22
2022-08-18T12:32:55.911Z,11.78
2022-08-18T12:38:08.275Z,11.65
2022-08-18T12:43:07.968Z,11.33
2022-08-18T12:48:13.719Z,12.78
2022-08-18T12:53:29.862Z,13.10
2022-08-18T12:58:29.028Z,13.05
2022-08-18T13:03:37.003Z,13.50
2022-08-18T13:08:50.120Z,12.47
2022-08-18T13:13:53.104Z,12.33
2022-08-18T13:18:58.963Z,11.73
2022-08-18T13:24:05.317Z,11.68
2022-08-18T13:29:13.343Z,10.70
2022-08-18T13:34:20.620Z,10.25
2022-08-18T13:39:33.893Z,10.15
2022-08-18T13:44:36.248Z,9.48
2022-08-18T13:49:41.775Z,9.30
2022-08-18T13:54:53.392Z,8.33
2022-08-18T13:59:56.587Z,8.38
2022-08-18T14:05:02.468Z,8.15
2022-08-18T14:10:13.280Z,7.55
2022-08-18T14:15:17.568Z,7.50
2022-08-18T14:20:48.391Z,7.53
2022-08-18T14:26:07.417Z,8.43
2022-08-18T14:31:13.401Z,8.40
2022-08-18T14:36:29.953Z,7.50
2022-08-18T14:41:28.921Z,8.00
2022-08-18T14:46:36.217Z,8.57
2022-08-18T14:51:44.232Z,7.43
2022-08-18T14:56:50.722Z,8.90
2022-08-18T15:01:56.792Z,9.63
2022-08-18T15:07:02.799Z,9.67
2022-08-18T15:12:09.069Z,10.30
2022-08-18T15:17:16.352Z,10.10
2022-08-18T15:22:40.147Z,9.83
2022-08-18T15:27:45.711Z,12.07
2022-08-18T15:32:52.011Z,10.47
2022-08-18T15:37:57.986Z,13.13
2022-08-18T15:43:09.629Z,10.13
2022-08-18T15:48:15.561Z,9.50
2022-08-18T15:53:25.497Z,8.43
2022-08-18T15:58:32.852Z,9.73
2022-08-18T16:03:38.633Z,9.40
2022-08-18T16:08:44.844Z,8.53
2022-08-18T16:13:51.523Z,8.70
2022-08-18T16:18:57.770Z,7.90
2022-08-18T16:24:03.480Z,7.57
2022-08-18T16:29:09.550Z,7.97
2022-08-18T16:34:15.493Z,8.03
2022-08-18T16:39:21.247Z,8.53
2022-08-18T16:44:30.112Z,7.07
2022-08-18T16:49:36.603Z,5.90
2022-08-18T16:54:42.863Z,4.93
2022-08-18T17:00:06.455Z,5.03
2022-08-18T17:05:12.551Z,5.17
2022-08-18T17:10:18.188Z,5.43
2022-08-18T17:15:25.385Z,4.57
2022-08-18T17:20:31.673Z,4.13
2022-08-18T17:25:38.488Z,5.77
2022-08-18T17:30:48.817Z,3.57
2022-08-18T17:35:55.066Z,5.30
2022-08-18T17:41:02.358Z,3.97
2022-08-18T17:46:26.730Z,2.40
2022-08-18T17:51:55.107Z,2.37
2022-08-18T17:57:01.677Z,3.00
2022-08-18T18:02:18.370Z,2.57
2022-08-18T18:07:40.074Z,2.63
2022-08-18T18:12:46.641Z,4.10
2022-08-18T18:17:52.354Z,2.93
2022-08-18T18:22:59.752Z,2.83
2022-08-18T18:28:05.316Z,1.90
2022-08-18T18:33:18.479Z,2.23
2022-08-18T18:38:38.843Z,4.10
2022-08-18T18:43:47.127Z,2.60
2022-08-18T18:49:09.261Z,2.50
2022-08-18T18:54:35.969Z,2.50
2022-08-18T19:00:21.188Z,2.27
2022-08-18T19:05:34.459Z,3.07
2022-08-18T19:10:45.888Z,3.00
2022-08-18T19:15:54.120Z,3.90
2022-08-18T19:22:01.948Z,5.60
2022-08-18T19:26:15.769Z,6.30
2022-08-18T19:31:39.064Z,6.43
2022-08-18T19:36:53.207Z,6.57
2022-08-18T19:42:30.617Z,5.47
2022-08-18T19:47:40.934Z,5.60
2022-08-18T19:53:05.063Z,6.33
2022-08-18T19:58:25.333Z,5.30
2022-08-18T20:03:36.508Z,5.10
2022-08-18T20:09:02.255Z,4.63
2022-08-18T20:14:11.639Z,5.43
2022-08-18T20:19:45.815Z,6.40
2022-08-18T20:24:54.313Z,6.27
2022-08-18T20:30:22.314Z,6.63
2022-08-18T20:35:32.318Z,6.80
2022-08-18T20:40:40.813Z,7.03
2022-08-18T20:45:47.196Z,8.03
2022-08-18T20:50:57.407Z,8.00
2022-08-18T20:56:32.429Z,8.90
2022-08-18T21:01:36.290Z,8.83
2022-08-18T21:06:44.723Z,8.90
2022-08-18T21:11:51.209Z,8.20
2022-08-18T21:16:58.106Z,8.67
2022-08-18T21:22:05.115Z,8.80
2022-08-18T21:27:26.364Z,8.53
2022-08-18T21:32:37.972Z,8.13
2022-08-18T21:37:43.526Z,8.53
2022-08-18T21:42:49.172Z,8.83
2022-08-18T21:47:57.548Z,8.20
2022-08-18T21:53:16.272Z,8.50
2022-08-18T21:58:44.708Z,7.97
2022-08-18T22:04:23.623Z,7.10
2022-08-18T22:09:49.855Z,6.67
2022-08-18T22:14:58.817Z,6.47
2022-08-18T22:20:40.716Z,6.40
2022-08-18T22:25:46.275Z,6.10
2022-08-18T22:30:51.869Z,5.77
2022-08-18T22:35:58.231Z,6.50
2022-08-18T22:41:04.244Z,7.30
2022-08-18T22:46:11.324Z,6.50
2022-08-18T22:51:18.314Z,6.97
2022-08-18T22:56:34.367Z,6.77
2022-08-18T23:01:33.335Z,7.70
2022-08-18T23:06:39.113Z,8.50
2022-08-18T23:11:44.678Z,7.97
2022-08-18T23:16:50.335Z,8.60
2022-08-18T23:21:56.315Z,8.40
2022-08-18T23:27:02.103Z,8.47
2022-08-18T23:32:08.061Z,9.60
2022-08-18T23:37:13.727Z,9.27
2022-08-18T23:42:19.288Z,8.70
2022-08-18T23:47:26.895Z,8.90
2022-08-18T23:52:32.363Z,9.10
2022-08-18T23:57:38.343Z,9.20
